createdAt,value
2023-10-30T00:00:39.791Z,2.17
2023-10-30T00:03:10.713Z,2.47
2023-10-30T00:05:39.095Z,2.87
2023-10-30T00:08:07.476Z,2.13
2023-10-30T00:10:37.157Z,2.70
2023-10-30T00:13:06.768Z,2.87
2023-10-30T00:15:35.184Z,2.20
2023-10-30T00:18:03.812Z,3.17
2023-10-30T00:20:32.220Z,2.23
2023-10-30T00:23:00.439Z,3.03
2023-10-30T00:25:28.672Z,3.20
2023-10-30T00:28:00.867Z,2.27
2023-10-30T00:30:30.500Z,2.40
2023-10-30T00:32:58.805Z,2.10
2023-10-30T00:35:27.186Z,1.80
2023-10-30T00:37:55.593Z,2.20
2023-10-30T00:40:25.671Z,2.20
2023-10-30T00:42:53.861Z,1.73
2023-10-30T00:45:22.202Z,2.13
2023-10-30T00:47:51.849Z,2.73
2023-10-30T00:50:20.131Z,2.03
2023-10-30T00:52:48.363Z,2.03
2023-10-30T00:55:16.762Z,2.87
2023-10-30T00:57:45.211Z,1.87
2023-10-30T01:00:13.879Z,2.30
2023-10-30T01:02:42.302Z,2.50
2023-10-30T01:05:12.407Z,1.70
2023-10-30T01:07:40.774Z,1.80
2023-10-30T01:10:09.193Z,1.70
2023-10-30T01:12:37.540Z,1.67
2023-10-30T01:15:06.212Z,1.83
2023-10-30T01:17:34.597Z,2.80
2023-10-30T01:20:04.018Z,2.20
2023-10-30T01:22:33.625Z,2.17
2023-10-30T01:25:01.906Z,2.47
2023-10-30T01:27:30.163Z,1.60
2023-10-30T01:29:58.412Z,2.30
2023-10-30T01:32:26.664Z,1.93
2023-10-30T01:34:54.947Z,2.13
2023-10-30T01:37:23.251Z,2.33
2023-10-30T01:39:52.795Z,2.33
2023-10-30T01:42:21.040Z,2.87
2023-10-30T01:44:56.050Z,2.17
2023-10-30T01:47:24.503Z,2.10
2023-10-30T01:49:52.785Z,1.27
2023-10-30T01:52:21.857Z,2.30
2023-10-30T01:54:50.576Z,2.80
2023-10-30T01:57:21.703Z,2.20
2023-10-30T01:59:50.577Z,1.53
2023-10-30T02:02:19.895Z,1.70
2023-10-30T02:04:48.120Z,2.10
2023-10-30T02:07:18.017Z,2.67
2023-10-30T02:09:48.174Z,2.50
2023-10-30T02:12:16.683Z,2.20
2023-10-30T02:14:46.276Z,3.50
2023-10-30T02:17:14.485Z,3.20
2023-10-30T02:19:43.052Z,1.97
2023-10-30T02:22:11.282Z,2.40
2023-10-30T02:24:39.642Z,2.20
2023-10-30T02:27:10.513Z,3.00
2023-10-30T02:29:39.755Z,2.50
2023-10-30T02:32:08.965Z,2.80
2023-10-30T02:34:37.298Z,2.57
2023-10-30T02:37:05.612Z,2.40
2023-10-30T02:39:35.711Z,2.87
2023-10-30T02:42:05.557Z,1.97
2023-10-30T02:44:35.197Z,2.40
2023-10-30T02:47:04.040Z,2.93
2023-10-30T02:49:32.266Z,2.37
2023-10-30T02:52:00.796Z,1.70
2023-10-30T02:54:29.150Z,3.17
2023-10-30T02:56:57.432Z,2.27
2023-10-30T02:59:25.737Z,2.20
2023-10-30T03:01:55.290Z,2.53
2023-10-30T03:04:24.677Z,2.90
2023-10-30T03:06:53.344Z,3.17
2023-10-30T03:09:21.597Z,2.20
2023-10-30T03:11:49.933Z,1.60
2023-10-30T03:14:18.216Z,2.20
2023-10-30T03:16:46.425Z,2.97
2023-10-30T03:19:16.037Z,2.20
2023-10-30T03:21:44.302Z,3.40
2023-10-30T03:24:12.632Z,3.03
2023-10-30T03:26:40.862Z,1.77
2023-10-30T03:29:09.170Z,2.47
2023-10-30T03:31:37.503Z,2.20
2023-10-30T03:34:05.752Z,2.63
2023-10-30T03:36:35.496Z,1.83
2023-10-30T03:39:05.134Z,2.00
2023-10-30T03:41:33.368Z,2.50
2023-10-30T03:44:01.597Z,2.50
2023-10-30T03:46:29.813Z,2.77
2023-10-30T03:48:58.033Z,2.27
2023-10-30T03:51:26.348Z,3.53
2023-10-30T03:53:55.922Z,3.10
2023-10-30T03:56:24.142Z,2.30
2023-10-30T03:58:52.395Z,1.90
2023-10-30T04:01:22.524Z,1.90
2023-10-30T04:03:52.251Z,2.43
2023-10-30T04:06:21.006Z,2.60
2023-10-30T04:08:49.270Z,1.87
2023-10-30T04:11:20.377Z,3.10
2023-10-30T04:13:48.580Z,2.10
2023-10-30T04:16:17.823Z,2.70
2023-10-30T04:18:46.167Z,2.37
2023-10-30T04:21:14.483Z,2.83
2023-10-30T04:23:43.677Z,2.27
2023-10-30T04:26:11.964Z,2.23
2023-10-30T04:28:41.629Z,2.30
2023-10-30T04:31:10.495Z,2.93
2023-10-30T04:33:38.912Z,2.27
2023-10-30T04:36:07.552Z,2.43
2023-10-30T04:38:36.122Z,2.90
2023-10-30T04:41:05.391Z,3.03
2023-10-30T04:43:33.739Z,3.13
2023-10-30T04:46:03.647Z,3.67
2023-10-30T04:48:32.264Z,2.57
2023-10-30T04:51:00.777Z,2.50
2023-10-30T04:53:30.612Z,2.43
2023-10-30T04:55:59.207Z,2.17
2023-10-30T04:58:27.655Z,2.83
2023-10-30T05:00:55.985Z,2.47
2023-10-30T05:03:25.582Z,3.13
2023-10-30T05:05:53.839Z,2.40
2023-10-30T05:08:23.106Z,2.13
2023-10-30T05:10:51.344Z,3.13
2023-10-30T05:13:19.558Z,2.40
2023-10-30T05:15:47.842Z,3.33
2023-10-30T05:18:18.721Z,2.93
2023-10-30T05:20:48.868Z,2.30
2023-10-30T05:23:17.475Z,2.63
2023-10-30T05:25:45.729Z,2.13
2023-10-30T05:28:14.007Z,2.63
2023-10-30T05:30:42.428Z,2.07
2023-10-30T05:33:10.774Z,2.70
2023-10-30T05:35:39.090Z,2.50
2023-10-30T05:38:08.705Z,2.87
2023-10-30T05:40:36.989Z,3.27
2023-10-30T05:43:05.208Z,2.40
2023-10-30T05:45:33.488Z,2.50
2023-10-30T05:48:01.749Z,2.90
2023-10-30T05:50:30.000Z,2.53
2023-10-30T05:52:58.205Z,2.60
2023-10-30T05:55:27.797Z,2.53
2023-10-30T05:57:56.125Z,3.27
2023-10-30T06:00:24.620Z,3.10
2023-10-30T06:02:53.326Z,3.30
2023-10-30T06:05:22.673Z,2.23
2023-10-30T06:07:50.928Z,1.93
2023-10-30T06:10:22.009Z,3.10
2023-10-30T06:12:51.897Z,2.40
2023-10-30T06:15:20.261Z,2.60
2023-10-30T06:17:48.557Z,3.20
2023-10-30T06:20:16.877Z,2.80
2023-10-30T06:22:45.076Z,2.67
2023-10-30T06:25:13.540Z,2.93
2023-10-30T06:27:42.302Z,3.50
2023-10-30T06:30:15.322Z,2.80
2023-10-30T06:32:43.747Z,2.10
2023-10-30T06:35:12.255Z,3.90
2023-10-30T06:37:40.618Z,3.17
2023-10-30T06:40:09.362Z,3.17
2023-10-30T06:42:37.683Z,3.40
2023-10-30T06:45:06.345Z,2.80
2023-10-30T06:47:35.944Z,2.60
2023-10-30T06:50:04.216Z,2.87
2023-10-30T06:52:32.462Z,2.70
2023-10-30T06:55:01.188Z,2.90
2023-10-30T06:57:29.755Z,3.03
2023-10-30T06:59:58.588Z,2.60
2023-10-30T07:02:27.062Z,2.90
2023-10-30T07:04:56.782Z,2.77
2023-10-30T07:07:25.013Z,2.20
2023-10-30T07:09:53.492Z,2.23
2023-10-30T07:12:21.845Z,2.80
2023-10-30T07:14:50.465Z,2.83
2023-10-30T07:17:18.835Z,2.70
2023-10-30T07:19:49.445Z,2.80
2023-10-30T07:22:19.002Z,3.13
2023-10-30T07:24:47.468Z,2.90
2023-10-30T07:27:18.551Z,2.50
2023-10-30T07:29:48.036Z,2.43
2023-10-30T07:32:16.279Z,3.13
2023-10-30T07:34:44.504Z,3.53
2023-10-30T07:37:12.777Z,2.50
2023-10-30T07:39:42.634Z,3.23
2023-10-30T07:42:10.896Z,2.53
2023-10-30T07:44:39.171Z,2.93
2023-10-30T07:47:07.829Z,2.30
2023-10-30T07:49:36.107Z,2.90
2023-10-30T07:52:04.339Z,2.57
2023-10-30T07:54:32.616Z,2.53
2023-10-30T07:57:02.205Z,2.37
2023-10-30T07:59:30.999Z,2.30
2023-10-30T08:01:59.312Z,2.23
2023-10-30T08:04:27.704Z,2.77
2023-10-30T08:06:56.145Z,2.50
2023-10-30T08:09:24.499Z,1.57
2023-10-30T08:11:52.719Z,2.30
2023-10-30T08:14:22.260Z,1.80
2023-10-30T08:16:50.522Z,2.03
2023-10-30T08:19:18.818Z,2.37
2023-10-30T08:21:47.080Z,1.90
2023-10-30T08:24:19.783Z,1.60
2023-10-30T08:26:48.423Z,1.80
2023-10-30T08:29:16.644Z,2.07
2023-10-30T08:31:48.043Z,1.63
2023-10-30T08:34:16.320Z,1.70
2023-10-30T08:36:45.172Z,1.33
2023-10-30T08:39:14.699Z,1.20
2023-10-30T08:41:43.056Z,1.50
2023-10-30T08:44:11.490Z,1.10
2023-10-30T08:46:39.742Z,1.17
2023-10-30T08:49:09.434Z,1.00
2023-10-30T08:51:53.165Z,1.10
2023-10-30T08:54:29.440Z,1.10
2023-10-30T08:57:03.860Z,1.10
2023-10-30T08:59:39.305Z,1.43
2023-10-30T09:02:08.159Z,1.17
2023-10-30T09:04:38.135Z,1.00
2023-10-30T09:07:06.742Z,1.00
2023-10-30T09:09:35.081Z,0.97
2023-10-30T09:12:03.722Z,1.00
2023-10-30T09:14:31.921Z,1.03
2023-10-30T09:17:00.156Z,0.80
2023-10-30T09:19:28.380Z,1.23
2023-10-30T09:21:58.089Z,0.93
2023-10-30T09:24:27.835Z,0.93
2023-10-30T09:26:56.134Z,0.90
2023-10-30T09:29:25.431Z,0.90
2023-10-30T09:31:53.694Z,0.70
2023-10-30T09:34:23.582Z,0.90
2023-10-30T09:36:53.208Z,0.90
2023-10-30T09:39:22.917Z,0.60
2023-10-30T09:41:51.190Z,1.20
2023-10-30T09:44:19.740Z,0.90
2023-10-30T09:46:50.885Z,0.87
2023-10-30T09:49:19.505Z,0.90
2023-10-30T09:51:48.097Z,1.20
2023-10-30T09:54:17.423Z,0.80
2023-10-30T09:56:47.014Z,0.90
2023-10-30T09:59:17.728Z,0.70
2023-10-30T10:01:46.261Z,0.70
2023-10-30T10:04:14.733Z,0.90
2023-10-30T10:06:43.487Z,2.97
2023-10-30T10:09:11.838Z,0.83
2023-10-30T10:11:40.079Z,0.93
2023-10-30T10:14:09.757Z,0.80
2023-10-30T10:16:38.477Z,1.00
2023-10-30T10:19:20.936Z,1.00
2023-10-30T10:21:50.065Z,0.73
2023-10-30T10:24:29.688Z,0.70
2023-10-30T10:27:03.434Z,1.13
2023-10-30T10:29:33.049Z,0.77
2023-10-30T10:32:01.392Z,0.70
2023-10-30T10:34:32.252Z,0.70
2023-10-30T10:37:01.148Z,0.60
2023-10-30T10:39:29.725Z,0.60
2023-10-30T10:41:58.778Z,0.63
2023-10-30T10:44:27.174Z,1.60
2023-10-30T10:47:00.328Z,0.60
2023-10-30T10:49:28.910Z,0.73
2023-10-30T10:51:57.875Z,0.77
2023-10-30T10:54:29.706Z,0.73
2023-10-30T10:56:58.819Z,0.70
2023-10-30T10:59:29.237Z,0.87
2023-10-30T11:01:59.103Z,1.07
2023-10-30T11:04:27.822Z,0.70
2023-10-30T11:07:00.441Z,0.80
2023-10-30T11:09:31.826Z,0.80
2023-10-30T11:12:04.562Z,0.60
2023-10-30T11:14:35.634Z,0.70
2023-10-30T11:17:06.551Z,0.63
2023-10-30T11:19:38.145Z,0.90
2023-10-30T11:22:06.418Z,0.90
2023-10-30T11:24:39.132Z,1.10
2023-10-30T11:27:26.347Z,1.13
2023-10-30T11:29:55.505Z,0.93
2023-10-30T11:32:26.354Z,0.73
2023-10-30T11:34:54.575Z,0.90
2023-10-30T11:37:23.407Z,0.73
2023-10-30T11:39:56.561Z,1.27
2023-10-30T11:42:34.156Z,1.00
2023-10-30T11:45:19.200Z,1.17
2023-10-30T11:47:50.439Z,1.33
2023-10-30T11:50:20.344Z,1.20
2023-10-30T11:52:48.994Z,1.30
2023-10-30T11:55:20.137Z,1.37
2023-10-30T11:57:48.795Z,1.37
2023-10-30T12:00:17.643Z,1.20
2023-10-30T12:02:47.295Z,1.93
2023-10-30T12:05:16.962Z,1.70
2023-10-30T12:07:45.533Z,1.73
2023-10-30T12:10:13.881Z,2.00
2023-10-30T12:12:43.106Z,1.50
2023-10-30T12:15:11.902Z,1.70
2023-10-30T12:17:42.378Z,1.70
2023-10-30T12:20:11.275Z,1.67
2023-10-30T12:22:43.319Z,1.87
2023-10-30T12:25:16.533Z,2.00
2023-10-30T12:27:45.104Z,1.70
2023-10-30T12:30:14.706Z,1.67
2023-10-30T12:32:43.915Z,2.17
2023-10-30T12:35:13.036Z,1.67
2023-10-30T12:37:43.023Z,1.87
2023-10-30T12:40:13.573Z,1.87
2023-10-30T12:42:42.309Z,2.10
2023-10-30T12:45:12.434Z,1.93
2023-10-30T12:47:41.139Z,2.20
2023-10-30T12:50:09.795Z,2.03
2023-10-30T12:52:38.665Z,1.67
2023-10-30T12:55:08.636Z,2.20
2023-10-30T12:57:38.176Z,2.20
2023-10-30T13:00:08.075Z,2.20
2023-10-30T13:02:36.549Z,2.07
2023-10-30T13:05:05.297Z,2.30
2023-10-30T13:07:33.659Z,2.10
2023-10-30T13:10:02.193Z,2.00
2023-10-30T13:12:32.081Z,2.57
2023-10-30T13:15:00.538Z,1.73
2023-10-30T13:17:28.883Z,2.10
2023-10-30T13:19:57.255Z,2.33
2023-10-30T13:22:25.609Z,2.37
2023-10-30T13:24:54.707Z,2.10
2023-10-30T13:27:23.453Z,2.07
2023-10-30T13:29:53.401Z,2.13
2023-10-30T13:32:21.740Z,2.00
2023-10-30T13:34:50.126Z,2.07
2023-10-30T13:37:18.425Z,1.80
2023-10-30T13:39:46.841Z,2.00
2023-10-30T13:42:15.716Z,1.63
2023-10-30T13:44:43.961Z,1.77
2023-10-30T13:47:13.552Z,1.87
2023-10-30T13:49:41.828Z,1.67
2023-10-30T13:52:10.105Z,1.80
2023-10-30T13:54:38.397Z,1.50
2023-10-30T13:57:06.670Z,1.67
2023-10-30T13:59:34.898Z,1.70
2023-10-30T14:02:03.655Z,1.80
2023-10-30T14:04:33.403Z,1.63
2023-10-30T14:07:01.708Z,1.80
2023-10-30T14:09:29.969Z,1.60
2023-10-30T14:11:58.185Z,1.47
2023-10-30T14:14:26.397Z,1.67
2023-10-30T14:16:54.694Z,1.57
2023-10-30T14:19:22.968Z,1.57
2023-10-30T14:21:52.585Z,1.77
2023-10-30T14:24:20.997Z,2.87
2023-10-30T14:26:49.210Z,1.97
2023-10-30T14:29:17.415Z,1.90
2023-10-30T14:31:45.720Z,2.07
2023-10-30T14:34:14.278Z,2.53
2023-10-30T14:36:42.577Z,1.90
2023-10-30T14:39:12.637Z,2.90
2023-10-30T14:41:43.156Z,3.07
2023-10-30T14:44:11.567Z,3.50
2023-10-30T14:46:39.913Z,3.90
2023-10-30T14:49:08.262Z,4.57
2023-10-30T14:51:37.545Z,2.80
2023-10-30T14:54:05.832Z,1.70
2023-10-30T14:56:35.411Z,2.50
2023-10-30T14:59:03.925Z,2.20
2023-10-30T15:01:32.229Z,2.73
2023-10-30T15:04:00.619Z,3.17
2023-10-30T15:06:28.906Z,3.17
2023-10-30T15:08:57.148Z,2.47
2023-10-30T15:11:25.360Z,2.20
2023-10-30T15:13:55.086Z,2.40
2023-10-30T15:16:23.537Z,2.20
2023-10-30T15:18:51.989Z,2.23
2023-10-30T15:21:20.268Z,2.70
2023-10-30T15:23:48.542Z,2.33
2023-10-30T15:26:16.754Z,2.60
2023-10-30T15:28:45.119Z,3.00
2023-10-30T15:31:14.921Z,2.77
2023-10-30T15:33:43.199Z,2.60
2023-10-30T15:36:11.492Z,2.20
2023-10-30T15:38:39.757Z,2.40
2023-10-30T15:41:07.973Z,3.13
2023-10-30T15:43:37.234Z,2.23
2023-10-30T15:46:05.743Z,2.27
2023-10-30T15:48:35.425Z,2.60
2023-10-30T15:51:03.829Z,2.70
2023-10-30T16:01:05.221Z,2.90
2023-10-30T16:03:34.989Z,3.87
2023-10-30T16:06:06.087Z,3.83
2023-10-30T16:16:09.367Z,5.93
2023-10-30T16:19:14.021Z,6.30
2023-10-30T16:21:27.573Z,6.93
2023-10-30T16:23:56.182Z,7.40
2023-10-30T16:26:24.468Z,7.20
2023-10-30T16:28:52.750Z,7.93
2023-10-30T16:31:21.054Z,7.40
2023-10-30T16:33:50.771Z,6.73
2023-10-30T16:36:20.351Z,7.03
2023-10-30T16:38:48.602Z,6.13
2023-10-30T16:41:17.225Z,6.73
2023-10-30T16:43:45.466Z,7.63
2023-10-30T16:46:14.015Z,4.97
2023-10-30T16:48:44.779Z,5.43
2023-10-30T16:51:14.406Z,6.10
2023-10-30T16:53:42.816Z,4.33
2023-10-30T16:56:11.047Z,4.10
2023-10-30T16:58:39.451Z,4.90
2023-10-30T17:01:07.781Z,3.57
2023-10-30T17:03:36.790Z,4.97
2023-10-30T17:06:05.175Z,4.80
2023-10-30T17:08:34.709Z,4.40
2023-10-30T17:11:02.944Z,4.73
2023-10-30T17:13:31.244Z,3.47
2023-10-30T17:15:59.467Z,3.90
2023-10-30T17:18:29.670Z,3.80
2023-10-30T17:20:57.958Z,4.27
2023-10-30T17:23:26.153Z,3.30
2023-10-30T17:25:56.281Z,3.20
2023-10-30T17:28:24.581Z,3.00
2023-10-30T17:30:52.867Z,2.63
2023-10-30T17:33:23.040Z,3.23
2023-10-30T17:35:51.286Z,3.90
2023-10-30T17:38:19.487Z,3.27
2023-10-30T17:40:47.831Z,3.03
2023-10-30T17:43:17.483Z,2.60
2023-10-30T17:45:45.713Z,3.20
2023-10-30T17:48:14.155Z,2.13
2023-10-30T17:50:42.393Z,1.90
2023-10-30T17:53:10.684Z,1.90
2023-10-30T17:55:38.963Z,2.00
2023-10-30T17:58:07.221Z,2.40
2023-10-30T18:00:36.798Z,2.27
2023-10-30T18:03:05.113Z,2.30
2023-10-30T18:05:34.546Z,2.83
2023-10-30T18:08:02.908Z,2.83
2023-10-30T18:10:31.189Z,3.50
2023-10-30T18:12:59.513Z,4.50
2023-10-30T18:15:27.791Z,4.67
2023-10-30T18:17:57.424Z,6.07
2023-10-30T18:20:30.305Z,6.40
2023-10-30T18:22:58.649Z,7.00
2023-10-30T18:25:27.074Z,7.57
2023-10-30T18:27:55.333Z,8.67
2023-10-30T18:30:23.680Z,8.00
2023-10-30T18:32:51.955Z,7.87
2023-10-30T18:35:21.658Z,6.27
2023-10-30T18:37:49.917Z,6.20
2023-10-30T18:40:18.261Z,9.20
2023-10-30T18:42:46.493Z,9.63
2023-10-30T18:45:15.549Z,8.30
2023-10-30T18:47:43.850Z,9.10
2023-10-30T18:50:12.457Z,10.37
2023-10-30T18:52:42.051Z,10.97
2023-10-30T18:55:10.458Z,10.50
2023-10-30T18:57:38.711Z,7.40
2023-10-30T19:00:09.244Z,6.47
2023-10-30T19:02:37.495Z,6.60
2023-10-30T19:05:06.030Z,4.80
2023-10-30T19:07:35.017Z,5.40
2023-10-30T19:10:04.594Z,6.33
2023-10-30T19:12:33.919Z,5.20
2023-10-30T19:15:02.502Z,4.13
2023-10-30T19:17:30.742Z,3.33
2023-10-30T19:19:59.083Z,3.40
2023-10-30T19:22:27.634Z,3.10
2023-10-30T19:24:55.893Z,3.77
2023-10-30T19:27:25.458Z,2.10
2023-10-30T19:29:53.684Z,2.60
2023-10-30T19:32:23.007Z,2.03
2023-10-30T19:34:51.275Z,2.63
2023-10-30T19:37:19.574Z,1.83
2023-10-30T19:39:50.095Z,2.03
2023-10-30T19:42:18.477Z,2.07
2023-10-30T19:44:48.086Z,1.63
2023-10-30T19:47:16.688Z,2.40
2023-10-30T19:49:45.014Z,1.67
2023-10-30T19:52:13.248Z,1.30
2023-10-30T19:54:42.246Z,1.43
2023-10-30T19:57:10.511Z,1.47
2023-10-30T19:59:38.751Z,1.30
2023-10-30T20:02:08.458Z,1.23
2023-10-30T20:04:36.820Z,1.30
2023-10-30T20:07:05.325Z,1.33
2023-10-30T20:09:41.234Z,1.80
2023-10-30T20:12:15.248Z,1.47
2023-10-30T20:14:43.478Z,1.23
2023-10-30T20:17:13.458Z,1.20
2023-10-30T20:19:41.772Z,1.40
2023-10-30T20:22:10.011Z,2.00
2023-10-30T20:24:39.208Z,3.10
2023-10-30T20:27:07.483Z,3.00
2023-10-30T20:29:35.681Z,2.00
2023-10-30T20:32:04.495Z,2.37
2023-10-30T20:34:34.093Z,1.87
2023-10-30T20:37:02.984Z,1.47
2023-10-30T20:39:31.509Z,1.93
2023-10-30T20:41:59.921Z,1.93
2023-10-30T20:44:28.179Z,2.50
2023-10-30T20:46:56.448Z,2.10
2023-10-30T20:49:24.645Z,2.13
2023-10-30T20:51:54.419Z,2.17
2023-10-30T20:54:22.655Z,1.60
2023-10-30T20:56:50.875Z,1.63
2023-10-30T20:59:19.757Z,2.60
2023-10-30T21:01:48.039Z,2.13
2023-10-30T21:04:16.362Z,2.37
2023-10-30T21:06:44.708Z,1.90
2023-10-30T21:09:15.768Z,1.70
2023-10-30T21:11:44.473Z,1.30
2023-10-30T21:14:12.691Z,1.40
2023-10-30T21:16:41.160Z,1.50
2023-10-30T21:19:09.405Z,1.67
2023-10-30T21:21:37.661Z,1.23
2023-10-30T21:24:06.090Z,1.20
2023-10-30T21:26:35.731Z,1.23
2023-10-30T21:29:03.952Z,1.43
2023-10-30T21:31:32.294Z,1.60
2023-10-30T21:34:00.631Z,1.83
2023-10-30T21:36:29.226Z,1.67
2023-10-30T21:38:58.669Z,1.80
2023-10-30T21:41:27.072Z,1.50
2023-10-30T21:43:58.029Z,1.77
2023-10-30T21:46:26.619Z,2.00
2023-10-30T21:48:55.166Z,2.23
2023-10-30T21:51:23.387Z,2.50
2023-10-30T21:53:53.756Z,2.63
2023-10-30T21:56:22.440Z,1.77
2023-10-30T21:58:50.743Z,1.87
2023-10-30T22:01:20.373Z,1.40
2023-10-30T22:03:48.805Z,1.43
2023-10-30T22:06:17.096Z,1.60
2023-10-30T22:08:45.320Z,2.20
2023-10-30T22:11:13.960Z,2.20
2023-10-30T22:13:42.216Z,3.20
2023-10-30T22:16:11.310Z,2.60
2023-10-30T22:18:41.016Z,3.13
2023-10-30T22:21:09.217Z,3.13
2023-10-30T22:23:37.438Z,3.27
2023-10-30T22:26:08.875Z,2.83
2023-10-30T22:28:37.161Z,3.37
2023-10-30T22:31:05.640Z,3.00
2023-10-30T22:33:33.913Z,2.30
2023-10-30T22:36:04.186Z,1.73
2023-10-30T22:38:32.819Z,2.27
2023-10-30T22:41:01.201Z,2.93
2023-10-30T22:43:33.092Z,3.60
2023-10-30T22:46:01.565Z,3.20
2023-10-30T22:48:29.815Z,3.10
2023-10-30T22:50:58.038Z,4.30
2023-10-30T22:53:28.057Z,4.20
2023-10-30T22:55:56.477Z,4.40
2023-10-30T22:58:24.769Z,4.43
2023-10-30T23:00:52.970Z,5.90
2023-10-30T23:03:21.205Z,5.27
2023-10-30T23:05:49.446Z,5.03
2023-10-30T23:08:17.710Z,4.77
2023-10-30T23:10:47.336Z,4.83
2023-10-30T23:13:15.604Z,4.93
2023-10-30T23:15:43.857Z,6.00
2023-10-30T23:18:12.189Z,4.63
2023-10-30T23:20:40.447Z,4.13
2023-10-30T23:23:08.680Z,4.30
2023-10-30T23:25:37.878Z,5.03
2023-10-30T23:28:08.665Z,4.90
2023-10-30T23:30:36.861Z,4.97
2023-10-30T23:33:05.906Z,5.13
2023-10-30T23:35:34.233Z,4.13
2023-10-30T23:38:08.011Z,6.10
2023-10-30T23:40:39.275Z,5.80
2023-10-30T23:43:08.944Z,6.23
2023-10-30T23:45:37.200Z,5.63
2023-10-30T23:48:05.656Z,4.23
2023-10-30T23:50:33.963Z,4.20
2023-10-30T23:53:02.302Z,4.57
2023-10-30T23:55:30.891Z,3.70
2023-10-30T23:57:59.135Z,3.77
